Time;durP1;ratioP1;P1;durP2;ratioP2;P2;SDS_P1;SDS_P2;PMS_P1;PMS_P2;Temp;Humidity;BMP_temperature;BMP_pressure;BME280_temperature;BME280_humidity;BME280_pressure;Samples;Min_cycle;Max_cycle;Signal;HPM_P1;HPM_P2
2023/09/07 00:01:33;;;;;;;6.55;5.97;;;;;;;16.48;100.00;101446.72;6127862;23;20218;-76
2023/09/07 00:04:00;;;;;;;6.93;6.50;;;;;;;16.38;100.00;101424.41;6099172;23;20075;-75
2023/09/07 00:06:27;;;;;;;6.70;6.30;;;;;;;16.50;100.00;101461.56;6118777;23;20683;-74
2023/09/07 00:08:53;;;;;;;6.57;6.18;;;;;;;15.71;100.00;101322.72;6126794;23;20045;-76
2023/09/07 00:11:20;;;;;;;6.88;6.38;;;;;;;15.57;100.00;101298.94;6120813;23;20504;-75
2023/09/07 00:13:46;;;;;;;7.18;6.60;;;;;;;16.47;100.00;101443.19;6090051;23;20029;-76
2023/09/07 00:16:15;;;;;;;6.85;6.22;;;;;;;15.85;100.00;101347.50;6098744;23;20045;-73
2023/09/07 00:18:41;;;;;;;6.65;6.25;;;;;;;16.20;100.00;101402.63;6130917;23;20089;-74
2023/09/07 00:21:08;;;;;;;6.50;6.10;;;;;;;16.25;100.00;101417.25;6121919;23;20044;-76
2023/09/07 00:23:35;;;;;;;6.80;6.30;;;;;;;16.26;100.00;101412.81;6098212;23;20031;-76
2023/09/07 00:26:02;;;;;;;6.97;6.38;;;;;;;15.20;100.00;101247.53;6095215;23;21265;-74
2023/09/07 00:28:28;;;;;;;6.90;6.30;;;;;;;15.98;100.00;101381.97;6132946;23;20021;-76
2023/09/07 00:30:55;;;;;;;6.90;6.40;;;;;;;15.50;100.00;101305.56;6107178;23;20668;-75
2023/09/07 00:33:22;;;;;;;6.50;6.10;;;;;;;16.30;100.00;101446.13;6103468;23;20088;-74
2023/09/07 00:35:48;;;;;;;6.88;6.38;;;;;;;15.54;100.00;101321.16;6102880;23;20572;-76
2023/09/07 00:38:15;;;;;;;7.10;6.47;;;;;;;15.71;100.00;101353.63;6130740;23;20080;-75
2023/09/07 00:40:45;;;;;;;7.10;6.55;;;;;;;16.19;100.00;101441.47;6108628;23;20017;-73
2023/09/07 00:43:12;;;;;;;6.35;5.95;;;;;;;16.15;100.00;101442.63;6130694;23;20020;-75
2023/09/07 00:45:39;;;;;;;6.85;6.30;;;;;;;15.99;100.00;101421.56;6103458;23;20028;-74
2023/09/07 00:48:07;;;;;;;7.72;7.03;;;;;;;16.12;100.00;101443.69;6122618;23;20087;-74
2023/09/07 00:50:34;;;;;;;6.90;6.38;;;;;;;15.76;100.00;101393.94;6126768;23;20092;-76
2023/09/07 00:53:02;;;;;;;6.60;6.10;;;;;;;16.08;100.00;101444.00;6135861;23;20616;-76
2023/09/07 00:55:32;;;;;;;6.40;6.00;;;;;;;15.97;100.00;101436.69;6103227;23;20880;-74
2023/09/07 00:57:59;;;;;;;6.80;6.30;;;;;;;16.01;100.00;101447.97;6105564;23;20059;-75
2023/09/07 01:00:26;;;;;;;6.03;5.65;;;;;;;15.90;100.00;101436.25;6126586;23;20017;-74
2023/09/07 01:02:52;;;;;;;6.13;5.75;;;;;;;15.39;100.00;101353.00;6126691;23;20039;-75
2023/09/07 01:05:24;;;;;;;7.18;6.50;;;;;;;15.92;100.00;101452.88;6131526;23;20392;-75
2023/09/07 01:07:57;;;;;;;7.40;6.70;;;;;;;15.92;100.00;101458.19;6122828;23;20107;-75
2023/09/07 01:10:23;;;;;;;6.47;6.00;;;;;;;15.90;100.00;101449.47;6095202;23;20043;-76
2023/09/07 01:12:50;;;;;;;7.00;6.50;;;;;;;15.73;100.00;101421.41;6127820;23;20013;-76
2023/09/07 01:15:17;;;;;;;7.18;6.57;;;;;;;15.90;100.00;101443.34;6128325;23;20025;-74
2023/09/07 01:17:43;;;;;;;6.75;6.15;;;;;;;15.39;100.00;101374.16;6131180;23;20155;-74
2023/09/07 01:20:13;;;;;;;7.63;6.95;;;;;;;15.50;100.00;101380.50;6128775;23;20029;-75
2023/09/07 01:22:40;;;;;;;7.35;6.68;;;;;;;15.48;100.00;101384.19;6101754;23;20611;-75
2023/09/07 01:25:07;;;;;;;7.35;6.75;;;;;;;15.49;100.00;101391.16;6109222;23;20017;-75
2023/09/07 01:27:34;;;;;;;7.20;6.57;;;;;;;15.80;100.00;101442.22;6125194;23;20024;-74
2023/09/07 01:30:02;;;;;;;6.70;6.20;;;;;;;15.76;100.00;101438.91;6125380;23;20029;-74
2023/09/07 01:32:29;;;;;;;7.03;6.45;;;;;;;15.59;100.00;101434.63;6123425;23;20363;-74
2023/09/07 01:34:57;;;;;;;7.03;6.53;;;;;;;15.72;100.00;101440.03;6097031;23;20032;-74
2023/09/07 01:37:24;;;;;;;6.80;6.30;;;;;;;14.94;100.00;101322.19;6096010;23;20093;-74
2023/09/07 01:39:50;;;;;;;6.82;6.40;;;;;;;15.65;100.00;101439.53;6129548;23;20029;-75
2023/09/07 01:42:17;;;;;;;6.53;6.13;;;;;;;15.65;100.00;101443.97;6123245;23;20051;-76
2023/09/07 01:44:43;;;;;;;7.45;6.82;;;;;;;15.46;100.00;101423.94;6129123;23;20180;-75
2023/09/07 01:47:10;;;;;;;6.60;6.20;;;;;;;15.55;100.00;101444.56;6124992;23;20037;-75
2023/09/07 01:49:36;;;;;;;6.63;6.13;;;;;;;15.20;100.00;101383.22;6129683;23;20039;-75
2023/09/07 01:52:03;;;;;;;6.80;6.30;;;;;;;15.22;100.00;101391.91;6094783;23;20025;-75
2023/09/07 01:54:30;;;;;;;6.35;5.95;;;;;;;15.36;100.00;101414.88;6123331;23;21012;-75
2023/09/07 01:56:57;;;;;;;6.65;6.25;;;;;;;14.67;100.00;101310.63;6125707;23;20036;-75
2023/09/07 01:59:23;;;;;;;7.13;6.57;;;;;;;14.55;100.00;101299.84;6130737;23;20103;-73
2023/09/07 02:01:49;;;;;;;7.03;6.40;;;;;;;15.09;100.00;101389.13;6125037;23;20025;-75
2023/09/07 02:04:16;;;;;;;7.15;6.60;;;;;;;15.31;100.00;101438.09;6133118;23;20017;-74
2023/09/07 02:06:42;;;;;;;7.03;6.53;;;;;;;15.17;100.00;101415.13;6094141;23;20030;-73
2023/09/07 02:09:09;;;;;;;7.97;7.38;;;;;;;14.98;100.00;101396.03;6099081;23;20092;-74
2023/09/07 02:11:35;;;;;;;6.30;5.90;;;;;;;15.26;100.00;101441.03;6091192;23;20025;-75
2023/09/07 02:14:02;;;;;;;7.85;7.15;;;;;;;14.85;100.00;101372.09;6097715;23;20024;-74
2023/09/07 02:16:29;;;;;;;8.00;7.30;;;;;;;14.26;100.00;101288.34;6120829;23;20082;-74
2023/09/07 02:19:06;;;;;;;7.00;6.20;;;;;;;15.15;100.00;101422.28;6094963;23;20034;-75
2023/09/07 02:21:33;;;;;;;7.38;6.88;;;;;;;15.22;100.00;101442.16;6124908;23;20076;-73
2023/09/07 02:23:59;;;;;;;7.50;6.72;;;;;;;14.98;100.00;101391.59;6093137;23;20081;-74
2023/09/07 02:26:26;;;;;;;7.43;6.60;;;;;;;14.56;100.00;101343.00;6097952;23;20348;-75
2023/09/07 02:28:52;;;;;;;7.50;6.85;;;;;;;15.20;100.00;101438.75;6123888;23;20035;-74
2023/09/07 02:31:19;;;;;;;7.28;6.60;;;;;;;15.20;100.00;101437.91;6127722;23;20291;-75
2023/09/07 02:33:48;;;;;;;7.13;6.63;;;;;;;14.92;100.00;101390.16;6100002;23;20033;-75
2023/09/07 02:36:14;;;;;;;7.22;6.65;;;;;;;15.04;100.00;101416.81;6131372;23;20020;-75
2023/09/07 02:38:41;;;;;;;7.72;6.93;;;;;;;14.93;100.00;101402.44;6127132;23;20012;-75
2023/09/07 02:41:10;;;;;;;6.93;6.35;;;;;;;14.73;100.00;101377.19;6132253;23;20025;-74
2023/09/07 02:43:37;;;;;;;7.57;6.85;;;;;;;15.12;100.00;101444.50;6099391;23;20026;-74
2023/09/07 02:46:06;;;;;;;6.97;6.47;;;;;;;15.12;100.00;101441.00;6128630;23;20572;-74
2023/09/07 02:48:33;;;;;;;6.90;6.40;;;;;;;14.78;100.00;101394.56;6125874;23;20024;-74
2023/09/07 02:51:00;;;;;;;7.13;6.53;;;;;;;14.85;100.00;101398.53;6131235;23;20033;-75
2023/09/07 02:53:27;;;;;;;7.72;6.88;;;;;;;14.93;100.00;101418.31;6098662;23;20032;-74
2023/09/07 02:55:53;;;;;;;7.95;7.05;;;;;;;15.10;100.00;101448.16;6128394;23;20009;-75
2023/09/07 02:58:20;;;;;;;8.07;7.28;;;;;;;15.10;100.00;101456.94;6120192;23;20082;-75
2023/09/07 03:00:47;;;;;;;7.88;7.28;;;;;;;14.73;100.00;101390.41;6123002;23;20012;-75
2023/09/07 03:03:14;;;;;;;7.25;6.68;;;;;;;15.07;100.00;101446.53;6123522;23;20077;-75
2023/09/07 03:05:42;;;;;;;9.10;6.75;;;;;;;15.06;100.00;101447.50;6128821;23;20028;-75
2023/09/07 03:08:09;;;;;;;7.20;6.60;;;;;;;15.05;100.00;101444.94;6120602;23;20052;-75
2023/09/07 03:10:37;;;;;;;7.20;6.47;;;;;;;14.65;100.00;101404.97;6101854;23;20777;-75
2023/09/07 03:13:04;;;;;;;7.78;6.47;;;;;;;14.41;100.00;101355.25;6124693;23;20024;-75
2023/09/07 03:15:30;;;;;;;7.15;6.55;;;;;;;14.99;100.00;101446.13;6098774;23;20025;-74
2023/09/07 03:17:57;;;;;;;6.93;6.43;;;;;;;14.44;100.00;101383.28;6119602;23;20036;-74
2023/09/07 03:20:23;;;;;;;6.57;6.07;;;;;;;13.55;100.00;101209.72;6093027;23;20001;-75
2023/09/07 03:22:50;;;;;;;6.90;6.38;;;;;;;14.68;100.00;101395.09;6127076;23;20100;-74
2023/09/07 03:25:16;;;;;;;7.25;6.65;;;;;;;14.96;100.00;101448.97;6100982;23;20372;-74
2023/09/07 03:27:43;;;;;;;7.10;6.50;;;;;;;14.96;100.00;101441.06;6121300;23;20614;-74
2023/09/07 03:30:10;;;;;;;8.10;7.32;;;;;;;13.73;100.00;101243.00;6116957;23;20086;-75
2023/09/07 03:32:37;;;;;;;6.93;6.53;;;;;;;14.90;100.00;101436.97;6126625;23;20118;-74
2023/09/07 03:35:09;;;;;;;8.23;6.70;;;;;;;14.55;100.00;101384.38;6113785;23;20509;-75
2023/09/07 03:37:37;;;;;;;7.10;6.60;;;;;;;14.98;100.00;101443.63;6094130;23;20085;-77
2023/09/07 03:40:05;;;;;;;6.38;5.88;;;;;;;14.96;100.00;101447.19;6099983;23;20666;-74
2023/09/07 03:42:31;;;;;;;6.85;6.25;;;;;;;14.70;100.00;101401.13;6124244;23;20033;-74
2023/09/07 03:44:59;;;;;;;6.80;6.20;;;;;;;14.59;100.00;101382.41;6123243;23;20033;-74
2023/09/07 03:47:29;;;;;;;7.55;6.85;;;;;;;14.45;100.00;101358.56;6128945;23;20399;-74
2023/09/07 03:49:59;;;;;;;6.93;6.30;;;;;;;14.61;100.00;101400.81;6116610;23;20401;-74
2023/09/07 03:52:26;;;;;;;6.78;6.28;;;;;;;14.84;100.00;101442.63;6118150;23;20021;-74
2023/09/07 03:54:56;;;;;;;6.78;6.25;;;;;;;14.82;100.00;101462.16;6126075;23;20073;-74
2023/09/07 03:57:27;;;;;;;7.20;6.70;;;;;;;14.37;100.00;101385.41;6092448;23;20039;-74
2023/09/07 03:59:57;;;;;;;6.47;5.97;;;;;;;14.78;100.00;101439.50;6133610;23;20397;-75
2023/09/07 04:02:24;;;;;;;7.10;6.50;;;;;;;14.76;100.00;101435.13;6092864;23;20089;-75
2023/09/07 04:04:55;;;;;;;6.63;6.13;;;;;;;14.44;100.00;101396.50;6127705;23;20080;-74
2023/09/07 04:07:21;;;;;;;6.47;6.00;;;;;;;14.57;100.00;101421.28;6104681;23;20026;-75
2023/09/07 04:09:50;;;;;;;7.45;6.85;;;;;;;14.43;100.00;101414.09;6132359;23;20083;-74
2023/09/07 04:12:16;;;;;;;7.32;6.82;;;;;;;14.46;100.00;101434.22;6121455;23;20523;-74
2023/09/07 04:14:44;;;;;;;6.97;6.38;;;;;;;13.49;100.00;101281.28;6131226;23;20028;-74
2023/09/07 04:17:11;;;;;;;7.00;6.47;;;;;;;14.50;100.00;101448.97;6125432;23;20029;-74
2023/09/07 04:19:37;;;;;;;6.38;5.95;;;;;;;14.39;100.00;101435.50;6131383;23;20037;-75
2023/09/07 04:22:04;;;;;;;6.47;6.05;;;;;;;13.99;100.00;101379.66;6127332;23;20502;-75
2023/09/07 04:24:30;;;;;;;6.70;6.15;;;;;;;13.94;100.00;101369.38;6130686;23;20045;-73
2023/09/07 04:27:01;;;;;;;6.80;6.20;;;;;;;14.15;100.00;101428.88;6122956;23;20037;-76
2023/09/07 04:29:28;;;;;;;7.20;6.50;;;;;;;14.16;100.00;101430.56;6127656;23;20084;-73
2023/09/07 04:31:54;;;;;;;6.20;5.80;;;;;;;13.83;100.00;101396.34;6125376;23;20041;-76
2023/09/07 04:34:22;;;;;;;6.68;6.28;;;;;;;13.70;100.00;101366.28;6128706;23;20080;-76
2023/09/07 04:36:48;;;;;;;6.28;5.72;;;;;;;14.14;100.00;101444.81;6130960;23;20075;-74
2023/09/07 04:39:15;;;;;;;6.85;6.15;;;;;;;14.00;100.00;101432.34;6126586;23;20469;-75
2023/09/07 04:41:41;;;;;;;7.15;6.57;;;;;;;13.83;100.00;101430.66;6123833;23;20124;-73
2023/09/07 04:44:08;;;;;;;6.32;5.95;;;;;;;13.28;100.00;101336.84;6101109;23;20026;-74
2023/09/07 04:46:34;;;;;;;6.88;6.38;;;;;;;13.96;100.00;101459.84;6120333;23;20040;-75
2023/09/07 04:49:01;;;;;;;6.45;5.97;;;;;;;13.61;100.00;101406.34;6123241;23;20029;-73
2023/09/07 04:51:27;;;;;;;6.53;6.13;;;;;;;13.42;100.00;101388.88;6119732;23;20358;-75
2023/09/07 04:53:54;;;;;;;6.63;6.10;;;;;;;12.88;100.00;101298.56;6111576;23;20056;-74
2023/09/07 04:56:21;;;;;;;6.68;6.13;;;;;;;13.46;100.00;101398.31;6116039;23;20047;-74
2023/09/07 04:58:48;;;;;;;6.55;6.10;;;;;;;13.85;100.00;101464.84;6123829;23;20017;-74
2023/09/07 05:01:15;;;;;;;6.80;6.30;;;;;;;13.87;100.00;101471.75;6084817;23;20046;-76
2023/09/07 05:03:41;;;;;;;6.60;6.10;;;;;;;13.60;100.00;101436.31;6093026;23;20112;-76
2023/09/07 05:06:08;;;;;;;6.15;5.75;;;;;;;13.64;100.00;101441.31;6097188;23;20062;-72
2023/09/07 05:08:37;;;;;;;6.05;5.65;;;;;;;13.95;100.00;101479.25;6119277;23;20033;-72
2023/09/07 05:11:04;;;;;;;7.30;6.68;;;;;;;13.64;100.00;101424.66;6085402;23;20010;-74
2023/09/07 05:13:31;;;;;;;6.80;6.22;;;;;;;14.04;100.00;101488.47;6111392;23;20045;-72
2023/09/07 05:16:01;;;;;;;6.85;6.40;;;;;;;13.93;100.00;101470.56;6115576;23;20016;-74
2023/09/07 05:18:27;;;;;;;6.20;5.80;;;;;;;14.15;100.00;101499.28;6116531;23;20032;-72
2023/09/07 05:20:54;;;;;;;6.50;6.00;;;;;;;13.95;100.00;101463.41;6115276;23;20009;-73
2023/09/07 05:23:22;;;;;;;6.60;6.10;;;;;;;14.09;100.00;101489.06;6118538;23;20037;-75
2023/09/07 05:25:52;;;;;;;6.32;5.82;;;;;;;14.30;100.00;101508.16;6105410;23;20100;-74
2023/09/07 05:28:20;;;;;;;6.68;6.18;;;;;;;13.79;100.00;101410.66;6111360;23;20026;-75
2023/09/07 05:30:47;;;;;;;6.93;6.43;;;;;;;14.31;100.00;101486.97;6086494;23;20306;-74
2023/09/07 05:33:16;;;;;;;7.05;6.55;;;;;;;14.54;100.00;101512.09;6093630;23;20341;-73
2023/09/07 05:35:43;;;;;;;6.55;6.05;;;;;;;14.58;100.00;101496.13;6127529;23;20025;-76
2023/09/07 05:38:09;;;;;;;6.43;6.03;;;;;;;14.28;100.00;101430.84;6120373;23;20642;-73
2023/09/07 05:40:38;;;;;;;6.78;6.28;;;;;;;14.90;100.00;101523.34;6113098;23;20024;-74
2023/09/07 05:43:05;;;;;;;7.03;6.32;;;;;;;14.59;100.00;101442.31;6116852;23;20034;-73
2023/09/07 05:45:36;;;;;;;7.43;6.72;;;;;;;14.92;100.00;101476.53;6116254;23;20014;-73
2023/09/07 05:48:04;;;;;;;6.60;6.15;;;;;;;15.07;100.00;101482.72;6116005;23;20032;-74
2023/09/07 05:50:33;;;;;;;6.75;6.25;;;;;;;15.13;100.00;101467.34;6121734;23;20007;-73
2023/09/07 05:52:59;;;;;;;6.65;6.05;;;;;;;15.24;100.00;101465.88;6088179;23;20432;-73
2023/09/07 05:55:26;;;;;;;11.60;7.22;;;;;;;15.50;100.00;101490.75;6121470;23;20228;-72
2023/09/07 05:57:56;;;;;;;7.43;6.72;;;;;;;15.40;100.00;101450.78;6093604;23;20025;-74
2023/09/07 06:00:23;;;;;;;6.32;5.93;;;;;;;15.27;100.00;101405.69;6114923;23;20031;-73
2023/09/07 06:02:52;;;;;;;7.75;7.15;;;;;;;15.71;100.00;101459.47;6119309;23;20086;-76
2023/09/07 06:05:19;;;;;;;8.18;6.53;;;;;;;15.59;100.00;101425.84;6116111;23;20017;-74
2023/09/07 06:07:45;;;;;;;6.53;6.13;;;;;;;15.88;100.00;101450.53;6121419;23;20009;-72
2023/09/07 06:10:12;;;;;;;6.72;6.22;;;;;;;15.95;100.00;101447.38;6089171;23;20590;-73
2023/09/07 06:12:39;;;;;;;6.93;6.32;;;;;;;16.05;100.00;101433.56;6118198;23;20648;-73
2023/09/07 06:15:07;;;;;;;6.57;6.18;;;;;;;15.29;100.00;101295.38;6115675;23;20033;-73
2023/09/07 06:17:33;;;;;;;7.15;6.55;;;;;;;15.99;100.00;101400.38;6091021;23;20049;-74
2023/09/07 06:20:00;;;;;;;6.68;6.18;;;;;;;15.94;100.00;101360.97;6093599;23;20030;-73
2023/09/07 06:22:26;;;;;;;7.30;6.80;;;;;;;16.48;100.00;101412.28;6086974;23;20022;-73
2023/09/07 06:24:53;;;;;;;7.07;6.47;;;;;;;16.40;100.00;101374.81;6099302;23;20034;-75
2023/09/07 06:27:19;;;;;;;6.50;6.10;;;;;;;16.82;100.00;101407.41;6115263;23;20041;-74
2023/09/07 06:29:46;;;;;;;7.05;6.45;;;;;;;16.71;100.00;101353.28;6118948;23;20024;-73
2023/09/07 06:32:12;;;;;;;6.55;6.07;;;;;;;16.91;100.00;101364.38;6112145;23;20025;-77
2023/09/07 06:34:39;;;;;;;7.00;6.50;;;;;;;17.29;100.00;101368.81;6118871;23;20080;-74
2023/09/07 06:37:06;;;;;;;7.28;6.78;;;;;;;17.47;100.00;101366.69;6082758;23;20016;-73
2023/09/07 06:39:33;;;;;;;6.88;6.38;;;;;;;17.41;100.00;101319.38;6114919;23;20048;-74
2023/09/07 06:42:00;;;;;;;7.05;6.47;;;;;;;17.56;100.00;101320.94;6093565;23;20033;-75
2023/09/07 06:44:26;;;;;;;8.07;6.75;;;;;;;17.32;100.00;101234.16;6117029;23;20026;-74
2023/09/07 06:46:53;;;;;;;6.85;6.15;;;;;;;18.06;100.00;101304.94;6123729;23;20042;-73
2023/09/07 06:49:19;;;;;;;7.32;6.60;;;;;;;17.98;100.00;101247.09;6117396;23;20080;-75
2023/09/07 06:51:46;;;;;;;6.53;6.07;;;;;;;17.86;100.00;101195.75;6115638;23;20005;-74
2023/09/07 06:54:13;;;;;;;7.13;6.53;;;;;;;18.14;100.00;101225.50;6115275;23;20075;-73
2023/09/07 06:56:39;;;;;;;6.78;6.28;;;;;;;17.93;100.00;101165.09;6083618;23;20087;-73
2023/09/07 06:59:06;;;;;;;6.80;6.30;;;;;;;18.10;100.00;101178.91;6115086;23;20017;-73
2023/09/07 07:01:32;;;;;;;7.88;7.07;;;;;;;18.76;100.00;101264.19;6092137;23;20029;-73
2023/09/07 07:03:59;;;;;;;6.70;6.20;;;;;;;18.60;100.00;101231.78;6092612;23;20089;-73
2023/09/07 07:06:26;;;;;;;7.38;6.88;;;;;;;18.99;100.00;101258.94;6132400;23;20112;-74
2023/09/07 07:08:52;;;;;;;7.90;6.85;;;;;;;19.13;98.28;101226.75;6096943;23;20041;-75
2023/09/07 07:11:19;;;;;;;7.43;6.68;;;;;;;19.28;97.08;101214.88;6118982;23;20235;-73
2023/09/07 07:13:46;;;;;;;6.63;6.22;;;;;;;19.40;97.20;101218.34;6114257;23;20026;-74
2023/09/07 07:16:13;;;;;;;7.15;6.45;;;;;;;19.55;96.02;101220.75;6117366;23;20100;-74
2023/09/07 07:18:40;;;;;;;7.07;6.50;;;;;;;19.60;92.43;101154.63;6113239;23;20480;-74
2023/09/07 07:21:24;;;;;;;7.22;6.65;;;;;;;19.87;88.82;101127.56;6118201;23;20024;-74
2023/09/07 07:23:51;;;;;;;6.82;6.32;;;;;;;19.98;87.93;101121.28;6117884;23;20025;-74
2023/09/07 07:26:17;;;;;;;7.45;6.85;;;;;;;20.07;86.07;101077.91;6114228;23;20058;-75
2023/09/07 07:28:43;;;;;;;7.05;6.47;;;;;;;20.30;83.61;101067.88;6115537;23;20554;-75
2023/09/07 07:31:10;;;;;;;7.55;6.88;;;;;;;20.43;80.25;101009.84;6089414;23;20013;-75
2023/09/07 07:33:37;;;;;;;7.70;7.00;;;;;;;20.55;80.06;101004.38;6105577;23;20111;-74
2023/09/07 07:36:05;;;;;;;6.80;6.40;;;;;;;20.73;78.22;100992.13;6114642;23;20024;-75
2023/09/07 07:38:31;;;;;;;7.05;6.50;;;;;;;20.86;78.25;100986.50;6103793;23;20087;-73
2023/09/07 07:40:58;;;;;;;9.63;6.78;;;;;;;20.46;77.13;100886.94;6117146;23;20427;-74
2023/09/07 07:43:24;;;;;;;7.20;6.53;;;;;;;21.10;76.46;100978.91;6117020;23;20052;-74
2023/09/07 07:45:54;;;;;;;7.22;6.13;;;;;;;21.20;76.33;100975.38;6092074;23;20021;-73
2023/09/07 07:48:21;;;;;;;7.22;6.55;;;;;;;20.98;75.79;100932.00;6116746;23;20542;-73
2023/09/07 07:50:47;;;;;;;7.70;6.65;;;;;;;21.15;74.56;100935.78;6091361;23;20048;-74
2023/09/07 07:53:14;;;;;;;6.68;6.20;;;;;;;21.52;74.79;100991.94;6117090;23;20575;-73
2023/09/07 07:55:41;;;;;;;7.00;6.50;;;;;;;21.58;73.54;100982.50;6089596;23;20013;-72
2023/09/07 07:58:09;;;;;;;7.07;6.55;;;;;;;21.50;73.69;100972.53;6086499;23;20092;-75
2023/09/07 08:00:37;;;;;;;6.80;6.40;;;;;;;21.75;73.18;101004.97;6118862;23;20041;-73
2023/09/07 08:03:07;;;;;;;6.55;6.18;;;;;;;22.01;72.48;101020.31;6084962;23;20018;-73
2023/09/07 08:05:34;;;;;;;7.68;7.07;;;;;;;21.59;71.88;100935.28;6116624;23;20029;-76
2023/09/07 08:08:01;;;;;;;7.18;6.60;;;;;;;21.98;71.58;100976.03;6113225;23;20731;-73
2023/09/07 08:10:28;;;;;;;7.20;6.70;;;;;;;22.20;71.38;101012.22;6113842;23;20013;-72
2023/09/07 08:12:58;;;;;;;6.63;6.20;;;;;;;22.37;71.15;101025.81;6116743;23;20029;-76
2023/09/07 08:15:25;;;;;;;6.70;6.30;;;;;;;22.41;69.88;101001.31;6111531;23;20010;-74
2023/09/07 08:17:52;;;;;;;6.85;6.35;;;;;;;22.64;69.04;101015.09;6117308;23;20052;-75
2023/09/07 08:20:19;;;;;;;7.18;6.47;;;;;;;22.84;66.96;100986.38;6092594;23;20041;-74
2023/09/07 08:22:46;;;;;;;7.45;6.90;;;;;;;22.95;67.48;101016.56;6111368;23;20489;-72
2023/09/07 08:25:13;;;;;;;7.80;7.20;;;;;;;22.90;66.31;100947.47;6113725;23;20074;-74
2023/09/07 08:27:45;;;;;;;7.43;6.93;;;;;;;23.19;64.74;100952.53;6107656;23;20078;-74
2023/09/07 08:30:15;;;;;;;7.60;6.95;;;;;;;23.27;65.69;100987.44;6110487;23;20088;-73
2023/09/07 08:32:42;;;;;;;6.95;6.50;;;;;;;22.71;64.33;100865.50;6089835;23;20037;-73
2023/09/07 08:35:12;;;;;;;7.95;7.35;;;;;;;23.49;63.65;100958.44;6113252;23;20014;-74
2023/09/07 08:37:40;;;;;;;13.02;6.28;;;;;;;23.60;62.56;100957.34;6094603;23;20026;-73
2023/09/07 08:40:07;;;;;;;6.82;6.32;;;;;;;23.47;61.96;100906.88;6093232;23;20708;-74
2023/09/07 08:42:38;;;;;;;6.78;6.13;;;;;;;23.67;61.10;100923.53;6086530;23;20028;-74
2023/09/07 08:45:07;;;;;;;6.97;6.40;;;;;;;23.60;61.41;100903.78;6114691;23;20058;-74
2023/09/07 08:47:36;;;;;;;6.97;6.47;;;;;;;23.89;61.03;100943.59;6117294;23;20546;-73
2023/09/07 08:50:06;;;;;;;6.90;6.40;;;;;;;23.94;61.72;100964.59;6112861;23;20105;-74
2023/09/07 08:52:33;;;;;;;7.30;6.70;;;;;;;23.77;60.26;100897.50;6093976;23;20118;-73
2023/09/07 08:55:04;;;;;;;6.35;5.95;;;;;;;23.69;59.20;100827.75;6120898;23;20530;-73
2023/09/07 08:57:31;;;;;;;7.03;6.47;;;;;;;24.32;58.84;100932.88;6116356;23;20061;-72
2023/09/07 08:59:58;;;;;;;6.90;6.38;;;;;;;23.94;58.25;100828.72;6114274;23;20029;-72
2023/09/07 09:02:25;;;;;;;7.00;6.40;;;;;;;24.25;57.60;100877.19;6117389;23;20092;-73
2023/09/07 09:04:53;;;;;;;6.82;6.32;;;;;;;24.16;58.26;100896.13;6117661;23;20459;-73
2023/09/07 09:07:20;;;;;;;6.80;6.40;;;;;;;24.49;57.69;100923.84;6091661;23;20037;-73
2023/09/07 09:09:49;;;;;;;7.32;6.72;;;;;;;24.43;56.94;100878.88;6120411;23;20733;-73
2023/09/07 09:12:17;;;;;;;7.75;6.88;;;;;;;24.47;58.22;100950.00;6084889;23;20022;-74
2023/09/07 09:14:44;;;;;;;7.18;6.68;;;;;;;24.68;56.74;100918.19;6089355;23;20036;-72
2023/09/07 09:17:13;;;;;;;6.88;6.38;;;;;;;24.86;56.46;100931.44;6096473;23;20032;-72
2023/09/07 09:19:41;;;;;;;7.03;6.60;;;;;;;24.56;56.59;100884.66;6095669;23;20697;-74
2023/09/07 09:22:08;;;;;;;6.88;6.47;;;;;;;24.85;55.26;100888.66;6115398;23;20037;-74
2023/09/07 09:24:35;;;;;;;6.70;6.30;;;;;;;25.05;56.46;100962.47;6116895;23;20097;-73
2023/09/07 09:27:02;;;;;;;6.78;6.35;;;;;;;25.19;56.96;101016.53;6119328;23;20113;-73
2023/09/07 09:29:29;;;;;;;7.18;6.65;;;;;;;25.26;57.44;101055.19;6121362;23;20060;-71
2023/09/07 09:31:55;;;;;;;7.30;6.80;;;;;;;25.21;56.56;100982.28;6114486;23;20077;-75
2023/09/07 09:34:22;;;;;;;6.78;6.38;;;;;;;25.55;56.29;101013.50;6119413;23;20037;-74
2023/09/07 09:36:49;;;;;;;7.28;6.78;;;;;;;25.23;57.09;100996.41;6116572;23;20091;-74
2023/09/07 09:39:25;;;;;;;6.78;6.38;;;;;;;25.41;54.86;100937.94;6072519;23;20017;-76
2023/09/07 09:41:52;;;;;;;6.45;6.05;;;;;;;25.74;54.90;100983.56;6116820;23;20032;-73
2023/09/07 09:44:25;;;;;;;6.72;6.32;;;;;;;25.91;54.03;100973.63;6119823;23;20094;-76
2023/09/07 09:46:55;;;;;;;7.30;6.80;;;;;;;25.93;54.04;100986.91;6117203;23;20074;-73
2023/09/07 09:49:23;;;;;;;6.93;6.43;;;;;;;26.10;54.91;101058.47;6119991;23;20032;-74
2023/09/07 09:51:52;;;;;;;6.53;6.13;;;;;;;25.62;54.48;100939.25;6107443;23;20013;-74
2023/09/07 09:54:19;;;;;;;6.80;6.40;;;;;;;26.13;53.74;100973.88;6119027;23;20033;-74
2023/09/07 09:56:45;;;;;;;7.13;6.43;;;;;;;26.17;54.23;101013.69;6114881;23;20021;-75
2023/09/07 09:59:13;;;;;;;6.82;6.32;;;;;;;26.14;53.33;100962.94;6091813;23;20041;-73
2023/09/07 10:01:44;;;;;;;7.57;6.82;;;;;;;26.44;53.71;101020.47;6113687;23;20645;-75
2023/09/07 10:04:14;;;;;;;6.50;6.10;;;;;;;26.58;54.50;101056.59;6091222;23;20769;-72
2023/09/07 10:07:01;;;;;;;7.13;6.65;;;;;;;26.67;53.41;101022.38;6116117;23;20036;-72
2023/09/07 10:09:36;;;;;;;7.45;6.95;;;;;;;26.90;53.00;101033.16;6085666;23;20064;-74
2023/09/07 10:12:07;;;;;;;6.68;6.28;;;;;;;26.63;52.68;100954.59;6112434;23;20041;-74
2023/09/07 10:14:41;;;;;;;7.57;7.07;;;;;;;26.90;53.29;101041.22;6113563;23;20512;-74
2023/09/07 10:17:09;;;;;;;7.45;6.97;;;;;;;25.43;53.29;100806.97;6095050;23;20709;-72
2023/09/07 10:19:38;;;;;;;7.03;6.60;;;;;;;27.03;52.79;101030.72;6090425;23;20032;-73
2023/09/07 10:22:04;;;;;;;7.47;6.60;;;;;;;27.50;51.53;100995.63;6112484;23;20084;-74
2023/09/07 10:24:36;;;;;;;7.47;6.68;;;;;;;27.58;51.15;101019.81;6115863;23;20026;-72
2023/09/07 10:27:05;;;;;;;8.30;7.50;;;;;;;27.41;50.61;100966.06;6112415;23;20502;-72
2023/09/07 10:29:45;;;;;;;7.15;6.65;;;;;;;27.55;50.12;100979.75;6115416;23;20029;-73
2023/09/07 10:32:14;;;;;;;7.03;6.43;;;;;;;27.53;50.02;100974.53;6111967;23;20026;-72
2023/09/07 10:34:45;;;;;;;7.00;6.50;;;;;;;27.57;50.17;101000.13;6091144;23;20077;-73
2023/09/07 10:37:15;;;;;;;6.72;6.32;;;;;;;27.79;50.83;101021.81;6114403;23;20477;-74
2023/09/07 10:39:44;;;;;;;6.40;6.00;;;;;;;27.65;50.88;101026.16;6115128;23;21276;-74
2023/09/07 10:42:22;;;;;;;7.65;6.88;;;;;;;28.04;50.19;101012.44;6097503;23;20104;-73
2023/09/07 10:44:48;;;;;;;6.80;6.30;;;;;;;27.91;50.45;101014.13;6082759;23;20041;-75
2023/09/07 10:47:15;;;;;;;7.05;6.55;;;;;;;27.93;49.21;100966.22;6113779;23;20535;-72
2023/09/07 10:49:41;;;;;;;6.97;6.57;;;;;;;27.92;49.82;100986.94;6082584;23;20049;-72
2023/09/07 10:52:08;;;;;;;6.78;6.38;;;;;;;27.93;49.40;100980.53;6115876;23;20091;-72
2023/09/07 10:54:35;;;;;;;6.55;6.15;;;;;;;27.80;49.35;100954.19;6120444;23;20022;-72
2023/09/07 10:57:09;;;;;;;6.85;6.45;;;;;;;27.99;49.24;100987.88;6095402;23;20444;-74
2023/09/07 10:59:35;;;;;;;7.10;6.60;;;;;;;28.05;49.49;101014.09;6115466;23;20081;-74
2023/09/07 11:02:06;;;;;;;6.97;6.50;;;;;;;28.13;48.91;100985.34;6091434;23;20470;-76
2023/09/07 11:04:33;;;;;;;7.00;6.47;;;;;;;28.21;49.36;101042.75;6114301;23;20033;-72
2023/09/07 11:07:00;;;;;;;7.20;6.78;;;;;;;28.30;50.13;101034.53;6090601;23;20014;-74
2023/09/07 11:09:27;;;;;;;6.80;6.30;;;;;;;28.71;48.99;101025.91;6113084;23;20475;-72
2023/09/07 11:11:53;;;;;;;8.13;6.70;;;;;;;28.79;47.30;100966.38;6084614;23;20750;-74
2023/09/07 11:14:22;;;;;;;7.30;6.80;;;;;;;28.71;47.82;100967.34;6115095;23;20050;-73
2023/09/07 11:16:48;;;;;;;7.20;6.70;;;;;;;28.55;47.33;100909.00;6098415;23;20076;-74
2023/09/07 11:19:15;;;;;;;6.95;6.47;;;;;;;29.07;47.52;101008.78;6114243;23;20119;-73
2023/09/07 11:21:42;;;;;;;6.63;6.18;;;;;;;29.26;47.11;101010.84;6087532;23;20010;-73